Aviation Digital Data Service (ADDS)

Output produced by TAFs form (1813 UTC 30 August 2014)
found at http://aviationweather.gov/adds/tafs/
 
KGUP 301739Z 3018/3118 24008KT P6SM FEW200 
     FM302000 24010G20KT P6SM FEW200 
     FM310400 21005KT P6SM SKC 
     FM311600 22012G22KT P6SM SKC